Time;durP1;ratioP1;P1;durP2;ratioP2;P2;SDS_P1;SDS_P2;PMS_P1;PMS_P2;Temp;Humidity;BMP_temperature;BMP_pressure;BME280_temperature;BME280_humidity;BME280_pressure;Samples;Min_cycle;Max_cycle;Signal;HPM_P1;HPM_P2
2023/04/04 00:00:35;;;;;;;4.47;2.97;;;5.10;1.00;;;;;;5039564;28;20466;-54
2023/04/04 00:03:01;;;;;;;6.53;2.23;;;5.10;1.00;;;;;;5039876;28;20463;-54
2023/04/04 00:05:27;;;;;;;6.13;2.27;;;5.10;1.00;;;;;;5040950;28;20531;-54
2023/04/04 00:07:53;;;;;;;3.90;2.07;;;4.90;1.00;;;;;;5037657;28;20193;-54
2023/04/04 00:10:18;;;;;;;4.43;2.90;;;4.80;1.00;;;;;;5044712;28;20197;-54
2023/04/04 00:12:45;;;;;;;2.33;1.83;;;4.80;1.00;;;;;;5036374;28;20202;-53
2023/04/04 00:15:11;;;;;;;2.77;2.13;;;4.90;1.00;;;;;;5048005;28;20196;-54
2023/04/04 00:17:36;;;;;;;2.70;2.33;;;4.90;1.00;;;;;;5039129;28;20504;-54
2023/04/04 00:20:03;;;;;;;4.73;2.63;;;4.90;1.00;;;;;;5044927;28;20447;-52
2023/04/04 00:22:28;;;;;;;4.10;2.83;;;5.00;1.00;;;;;;5039155;28;20574;-54
2023/04/04 00:24:54;;;;;;;5.63;2.30;;;4.90;1.00;;;;;;5048323;28;20434;-54
2023/04/04 00:27:20;;;;;;;4.13;2.27;;;4.80;1.00;;;;;;5042179;28;20210;-54
2023/04/04 00:29:46;;;;;;;4.23;2.03;;;4.80;1.00;;;;;;5046309;28;20188;-54
2023/04/04 00:32:11;;;;;;;3.60;2.10;;;4.80;1.00;;;;;;5038705;28;20518;-54
2023/04/04 00:34:37;;;;;;;4.80;2.43;;;5.00;1.00;;;;;;5047374;28;20198;-53
2023/04/04 00:37:06;;;;;;;2.93;2.20;;;5.10;1.00;;;;;;5045286;28;20212;-52
2023/04/04 00:39:32;;;;;;;3.63;2.30;;;5.20;1.00;;;;;;5047104;28;20526;-53
2023/04/04 00:41:57;;;;;;;3.87;2.10;;;5.10;1.00;;;;;;5046278;28;20851;-53
2023/04/04 00:44:23;;;;;;;3.53;2.37;;;5.10;1.00;;;;;;5060327;28;20531;-54
2023/04/04 00:46:51;;;;;;;3.63;2.57;;;5.20;1.00;;;;;;5046348;28;20193;-54
2023/04/04 00:49:17;;;;;;;3.73;2.07;;;5.10;1.00;;;;;;5040560;28;20192;-54
2023/04/04 00:51:42;;;;;;;2.40;2.20;;;5.10;1.00;;;;;;5041978;28;20450;-54
2023/04/04 00:54:08;;;;;;;6.30;2.40;;;5.10;1.00;;;;;;5050304;28;20474;-53
2023/04/04 00:56:38;;;;;;;3.40;1.93;;;5.00;1.00;;;;;;5047284;28;20239;-57
2023/04/04 00:59:04;;;;;;;4.50;2.07;;;5.10;1.00;;;;;;5041653;28;20180;-52
2023/04/04 01:01:31;;;;;;;5.53;2.30;;;5.10;1.00;;;;;;5041491;28;20892;-55
2023/04/04 01:03:57;;;;;;;2.17;1.97;;;5.10;1.00;;;;;;5047736;28;20458;-52
2023/04/04 01:06:23;;;;;;;3.60;2.00;;;4.90;1.00;;;;;;5048039;28;20460;-54
2023/04/04 01:08:51;;;;;;;4.13;2.10;;;4.80;1.00;;;;;;5042336;28;20457;-54
2023/04/04 01:11:17;;;;;;;7.70;2.70;;;4.70;1.00;;;;;;5048282;28;21017;-55
2023/04/04 01:13:43;;;;;;;4.23;2.33;;;4.70;1.00;;;;;;5046264;28;20455;-54
2023/04/04 01:16:08;;;;;;;4.07;2.43;;;4.70;1.00;;;;;;5050364;28;20239;-54
2023/04/04 01:18:37;;;;;;;6.10;2.40;;;4.70;1.00;;;;;;5054289;28;20443;-55
2023/04/04 01:21:09;;;;;;;4.37;3.00;;;4.60;1.00;;;;;;5047368;28;20199;-54
2023/04/04 01:24:01;;;;;;;3.47;1.90;;;4.50;1.00;;;;;;5048337;28;20494;-54
2023/04/04 01:26:27;;;;;;;5.50;2.10;;;4.60;1.00;;;;;;5043435;28;20443;-54
2023/04/04 01:28:54;;;;;;;5.50;2.53;;;4.70;1.00;;;;;;5046299;28;20541;-54
2023/04/04 01:31:38;;;;;;;4.57;2.53;;;4.70;1.00;;;;;;5040736;28;20530;-55
2023/04/04 01:34:25;;;;;;;5.93;2.30;;;4.80;1.00;;;;;;5047573;28;20470;-54
2023/04/04 01:37:05;;;;;;;3.57;2.20;;;4.70;1.00;;;;;;5040354;28;20496;-53
2023/04/04 01:39:32;;;;;;;2.70;1.97;;;4.60;1.00;;;;;;5036357;28;20853;-56
2023/04/04 01:42:00;;;;;;;4.27;2.00;;;4.60;1.00;;;;;;5038631;28;20443;-53
2023/04/04 01:44:26;;;;;;;5.33;2.43;;;4.80;1.00;;;;;;5042425;28;20952;-54
2023/04/04 01:46:53;;;;;;;2.30;1.80;;;4.70;1.00;;;;;;5045834;28;20723;-52
2023/04/04 01:49:19;;;;;;;2.50;2.10;;;4.70;1.00;;;;;;5040602;28;20671;-54
2023/04/04 01:51:45;;;;;;;4.40;2.03;;;4.60;1.00;;;;;;5060227;28;20505;-54
2023/04/04 01:54:11;;;;;;;6.80;2.20;;;4.70;1.00;;;;;;5046014;28;20228;-53
2023/04/04 01:56:36;;;;;;;2.97;1.97;;;4.80;1.00;;;;;;5045907;28;20211;-53
2023/04/04 01:59:02;;;;;;;5.10;1.77;;;4.80;1.00;;;;;;5047176;28;20184;-54
2023/04/04 02:01:28;;;;;;;4.00;2.57;;;4.60;1.00;;;;;;5046268;28;20196;-54
2023/04/04 02:03:53;;;;;;;3.13;2.00;;;4.60;1.00;;;;;;5049092;28;20797;-52
2023/04/04 02:06:19;;;;;;;3.97;2.23;;;4.70;1.00;;;;;;5039767;28;20211;-54
2023/04/04 02:08:45;;;;;;;4.17;2.50;;;4.70;1.00;;;;;;5042652;28;20192;-55
2023/04/04 02:11:11;;;;;;;3.90;2.33;;;4.90;1.00;;;;;;5049181;28;20196;-54
2023/04/04 02:13:40;;;;;;;5.03;2.50;;;4.70;1.00;;;;;;5046272;28;20443;-54
2023/04/04 02:16:05;;;;;;;4.23;2.40;;;4.60;1.00;;;;;;5048801;28;20239;-53
2023/04/04 02:18:32;;;;;;;4.80;3.60;;;4.50;1.00;;;;;;5040700;28;20472;-56
2023/04/04 02:20:58;;;;;;;8.57;2.57;;;4.60;1.00;;;;;;5043956;28;20207;-54
2023/04/04 02:23:24;;;;;;;3.80;2.00;;;4.60;1.00;;;;;;5046395;28;20446;-54
2023/04/04 02:25:50;;;;;;;2.40;2.00;;;4.50;1.00;;;;;;5046539;28;20447;-53
2023/04/04 02:28:16;;;;;;;5.07;2.50;;;4.70;1.00;;;;;;5045793;28;20797;-54
2023/04/04 02:30:41;;;;;;;6.23;2.80;;;4.70;1.00;;;;;;5045148;28;20458;-54
2023/04/04 02:33:07;;;;;;;4.00;2.50;;;4.60;1.00;;;;;;5046119;28;20199;-54
2023/04/04 02:35:33;;;;;;;5.67;2.50;;;4.60;1.00;;;;;;5049749;28;20216;-55
2023/04/04 02:37:59;;;;;;;5.40;2.47;;;4.50;1.00;;;;;;5044085;28;20494;-53
2023/04/04 02:40:24;;;;;;;4.07;2.17;;;4.50;1.00;;;;;;5047277;28;20196;-54
2023/04/04 02:42:50;;;;;;;3.33;2.10;;;4.30;1.00;;;;;;5052913;28;20300;-52
2023/04/04 02:45:16;;;;;;;5.67;2.33;;;4.20;1.00;;;;;;5045592;28;20184;-55
2023/04/04 02:47:48;;;;;;;3.97;2.07;;;4.10;1.00;;;;;;5053858;28;20184;-52
2023/04/04 02:50:14;;;;;;;4.93;2.53;;;4.00;1.00;;;;;;5045988;28;20455;-53
2023/04/04 02:52:39;;;;;;;5.40;2.50;;;3.90;1.00;;;;;;5048073;28;20506;-52
2023/04/04 02:55:06;;;;;;;8.10;2.80;;;4.30;1.00;;;;;;5043817;28;20562;-55
2023/04/04 02:57:32;;;;;;;4.90;2.27;;;3.90;1.00;;;;;;5047245;28;20666;-51
2023/04/04 02:59:57;;;;;;;3.40;2.33;;;3.90;1.00;;;;;;5047825;28;20486;-52
2023/04/04 03:02:24;;;;;;;5.53;2.70;;;3.80;1.00;;;;;;5041287;28;20193;-56
2023/04/04 03:04:50;;;;;;;3.90;2.50;;;3.80;1.00;;;;;;5046624;28;20181;-54
2023/04/04 03:07:15;;;;;;;4.20;2.07;;;3.80;1.00;;;;;;5042542;28;20868;-55
2023/04/04 03:09:44;;;;;;;5.93;3.13;;;3.70;1.00;;;;;;5046320;28;20230;-53
2023/04/04 03:12:10;;;;;;;4.80;2.67;;;3.60;1.00;;;;;;5044613;28;20188;-53
2023/04/04 03:14:35;;;;;;;4.60;2.73;;;3.60;1.00;;;;;;5043456;28;20576;-52
2023/04/04 03:17:02;;;;;;;7.70;3.10;;;3.50;1.00;;;;;;5046069;28;20557;-52
2023/04/04 03:19:27;;;;;;;5.60;3.00;;;3.60;1.00;;;;;;5043680;28;20202;-53
2023/04/04 03:21:53;;;;;;;5.20;2.50;;;3.70;1.00;;;;;;5046974;28;20450;-54
2023/04/04 03:24:19;;;;;;;5.80;2.40;;;3.60;1.00;;;;;;5045954;28;20657;-56
2023/04/04 03:26:45;;;;;;;4.90;2.60;;;3.70;1.00;;;;;;5045572;28;20214;-53
2023/04/04 03:29:10;;;;;;;6.37;2.67;;;3.70;1.00;;;;;;5041044;28;20192;-54
2023/04/04 03:31:36;;;;;;;5.50;2.27;;;3.70;1.00;;;;;;5046382;28;20447;-55
2023/04/04 03:34:03;;;;;;;3.40;2.60;;;3.60;1.00;;;;;;5049048;28;20184;-55
2023/04/04 03:36:29;;;;;;;3.77;3.37;;;3.70;1.00;;;;;;5045233;28;20208;-52
2023/04/04 03:38:55;;;;;;;3.00;2.23;;;3.80;1.00;;;;;;5046128;28;20444;-53
2023/04/04 03:41:21;;;;;;;5.60;3.13;;;3.90;1.00;;;;;;5044329;28;20447;-55
2023/04/04 03:43:47;;;;;;;6.40;3.20;;;3.90;1.00;;;;;;5048548;28;20674;-53
2023/04/04 03:46:13;;;;;;;4.07;2.60;;;3.80;1.00;;;;;;5043633;28;20177;-53
2023/04/04 03:48:39;;;;;;;3.80;2.53;;;3.90;1.00;;;;;;5053064;28;20439;-53
2023/04/04 03:51:05;;;;;;;7.80;3.10;;;3.80;1.00;;;;;;5040509;28;20459;-55
2023/04/04 03:53:31;;;;;;;4.20;3.00;;;3.70;1.00;;;;;;5048783;28;20443;-55
2023/04/04 03:55:57;;;;;;;5.90;3.00;;;3.70;1.00;;;;;;5043644;28;20455;-52
2023/04/04 03:58:23;;;;;;;3.80;2.37;;;3.70;1.00;;;;;;5047714;28;20956;-52
2023/04/04 04:00:48;;;;;;;6.67;3.33;;;3.80;1.00;;;;;;5041164;28;20447;-55
2023/04/04 04:03:14;;;;;;;11.87;3.03;;;3.80;1.00;;;;;;5042315;28;20451;-54
2023/04/04 04:05:40;;;;;;;3.77;3.00;;;3.80;1.00;;;;;;5040148;28;20179;-54
2023/04/04 04:08:05;;;;;;;6.17;2.40;;;4.00;1.00;;;;;;5049102;28;20193;-56
2023/04/04 04:10:35;;;;;;;3.17;2.43;;;3.70;1.00;;;;;;5047863;28;20246;-54
2023/04/04 04:13:01;;;;;;;3.70;2.77;;;3.70;1.00;;;;;;5047631;28;20189;-53
2023/04/04 04:15:27;;;;;;;4.70;2.67;;;3.70;1.00;;;;;;5041192;28;20452;-54
2023/04/04 04:17:52;;;;;;;6.93;2.83;;;3.80;1.00;;;;;;5057358;28;20485;-53
2023/04/04 04:20:18;;;;;;;4.70;2.40;;;3.80;1.00;;;;;;5045820;28;20287;-56
2023/04/04 04:22:47;;;;;;;3.33;2.50;;;3.80;1.00;;;;;;5045760;28;20189;-56
2023/04/04 04:25:15;;;;;;;4.30;2.90;;;3.80;1.00;;;;;;5043558;28;20184;-54
2023/04/04 04:27:41;;;;;;;5.00;2.40;;;3.80;1.00;;;;;;5045372;28;20450;-55
2023/04/04 04:30:08;;;;;;;7.10;3.53;;;3.90;1.00;;;;;;5048138;28;20450;-55
2023/04/04 04:32:33;;;;;;;7.13;2.83;;;3.90;1.00;;;;;;5047004;28;20534;-54
2023/04/04 04:34:59;;;;;;;8.10;2.93;;;3.90;1.00;;;;;;5046170;28;20447;-55
2023/04/04 04:37:25;;;;;;;8.37;4.60;;;4.00;1.00;;;;;;5047075;28;20643;-56
2023/04/04 04:39:52;;;;;;;6.13;2.47;;;3.90;1.00;;;;;;5047704;28;20195;-54
2023/04/04 04:42:18;;;;;;;4.57;3.03;;;3.80;1.00;;;;;;5048717;28;20455;-55
2023/04/04 04:44:44;;;;;;;3.70;2.77;;;4.10;1.00;;;;;;5047910;28;20446;-55
2023/04/04 04:47:10;;;;;;;3.37;2.77;;;4.00;1.00;;;;;;5049827;28;20435;-54
2023/04/04 04:49:35;;;;;;;4.40;2.53;;;3.90;1.00;;;;;;5049130;28;20451;-55
2023/04/04 04:52:01;;;;;;;4.17;2.50;;;3.80;1.00;;;;;;5044593;28;20459;-56
2023/04/04 04:54:27;;;;;;;10.17;3.37;;;3.80;1.00;;;;;;5050326;28;20227;-55
2023/04/04 04:56:52;;;;;;;6.80;3.20;;;3.90;1.00;;;;;;5050004;28;20459;-54
2023/04/04 04:59:18;;;;;;;5.37;3.03;;;3.80;1.00;;;;;;5051372;28;20618;-55
2023/04/04 05:01:44;;;;;;;4.83;2.47;;;4.00;1.00;;;;;;5048143;28;20271;-53
2023/04/04 05:04:09;;;;;;;4.40;2.20;;;3.80;1.00;;;;;;5050089;28;20596;-57
2023/04/04 05:06:36;;;;;;;3.27;2.43;;;3.60;1.00;;;;;;5048166;28;20299;-53
2023/04/04 05:09:02;;;;;;;5.07;2.80;;;3.60;1.00;;;;;;5050301;28;20192;-52
2023/04/04 05:11:28;;;;;;;2.17;1.87;;;3.70;1.00;;;;;;5047466;28;20604;-53
2023/04/04 05:13:54;;;;;;;5.10;2.97;;;3.60;1.00;;;;;;5049453;28;21004;-53
2023/04/04 05:16:19;;;;;;;4.87;2.30;;;3.50;1.00;;;;;;5046232;28;20350;-55
2023/04/04 05:18:45;;;;;;;2.60;2.10;;;3.50;1.00;;;;;;5048660;28;20192;-54
2023/04/04 05:21:11;;;;;;;4.40;2.90;;;3.60;1.00;;;;;;5043270;28;20192;-53
2023/04/04 05:23:37;;;;;;;4.50;2.40;;;3.80;1.00;;;;;;5046847;28;20195;-54
2023/04/04 05:26:02;;;;;;;3.93;2.37;;;3.80;1.00;;;;;;5044315;28;20188;-55
2023/04/04 05:28:28;;;;;;;5.23;2.70;;;3.80;1.00;;;;;;5048892;28;20289;-54
2023/04/04 05:30:53;;;;;;;6.50;3.50;;;3.60;1.00;;;;;;5048414;28;20209;-55
2023/04/04 05:33:19;;;;;;;7.07;4.23;;;3.70;1.00;;;;;;5046058;28;20681;-54
2023/04/04 05:35:45;;;;;;;12.63;6.73;;;3.70;1.00;;;;;;5044777;28;20200;-53
2023/04/04 05:38:11;;;;;;;8.00;5.23;;;3.80;1.00;;;;;;5045789;28;20285;-53
2023/04/04 05:40:36;;;;;;;7.37;3.20;;;4.00;1.00;;;;;;5047300;28;20228;-56
2023/04/04 05:43:03;;;;;;;7.57;3.90;;;4.00;1.00;;;;;;5050213;28;20525;-55
2023/04/04 05:45:30;;;;;;;6.13;4.37;;;3.80;1.00;;;;;;5053917;28;20184;-54
2023/04/04 05:47:56;;;;;;;4.20;2.73;;;3.80;1.00;;;;;;5057992;28;20457;-54
2023/04/04 05:50:22;;;;;;;7.10;4.27;;;3.70;1.00;;;;;;5055268;28;20524;-55
2023/04/04 05:52:47;;;;;;;7.97;3.97;;;3.60;1.00;;;;;;5048198;28;20200;-53
2023/04/04 05:55:13;;;;;;;5.37;2.60;;;3.60;1.00;;;;;;5046913;28;20479;-55
2023/04/04 05:57:47;;;;;;;6.70;3.10;;;3.70;1.00;;;;;;5043992;28;20231;-55
2023/04/04 06:00:14;;;;;;;6.03;3.40;;;3.80;1.00;;;;;;5043421;28;20798;-55
2023/04/04 06:02:40;;;;;;;5.30;3.00;;;4.20;1.00;;;;;;5047154;28;20447;-54
2023/04/04 06:05:07;;;;;;;4.63;2.60;;;4.20;1.00;;;;;;5054938;28;20439;-55
2023/04/04 06:07:32;;;;;;;4.97;2.50;;;4.40;1.00;;;;;;5050383;28;20568;-55
2023/04/04 06:09:58;;;;;;;4.60;2.53;;;4.30;1.00;;;;;;5036839;28;20506;-52
2023/04/04 06:12:23;;;;;;;5.73;3.07;;;4.30;1.00;;;;;;5037816;28;20196;-54
2023/04/04 06:14:49;;;;;;;4.53;2.90;;;4.50;1.00;;;;;;5045919;28;20647;-55
2023/04/04 06:17:15;;;;;;;5.27;3.00;;;4.60;1.00;;;;;;5045686;28;20208;-54
2023/04/04 06:19:40;;;;;;;5.80;3.67;;;4.60;1.00;;;;;;5046954;28;20238;-53
2023/04/04 06:22:06;;;;;;;6.63;3.20;;;4.50;1.00;;;;;;5047398;28;20235;-55
2023/04/04 06:24:31;;;;;;;6.83;3.00;;;4.50;1.00;;;;;;5040146;28;20192;-52
2023/04/04 06:26:57;;;;;;;6.07;4.23;;;4.50;1.00;;;;;;5043504;28;20193;-53
2023/04/04 06:29:23;;;;;;;7.70;3.83;;;4.80;1.00;;;;;;5064143;28;20526;-54
2023/04/04 06:31:49;;;;;;;4.83;2.73;;;4.70;1.00;;;;;;5051103;28;20208;-55
2023/04/04 06:34:15;;;;;;;5.03;3.07;;;4.80;1.00;;;;;;5044999;28;20245;-56
2023/04/04 06:36:40;;;;;;;7.30;3.93;;;4.80;1.00;;;;;;5048714;28;20499;-55
2023/04/04 06:39:06;;;;;;;7.47;4.70;;;4.90;1.00;;;;;;5044510;28;20451;-53
2023/04/04 06:41:32;;;;;;;7.23;2.97;;;5.00;1.00;;;;;;5047010;28;20304;-53
2023/04/04 06:43:58;;;;;;;5.97;3.60;;;5.20;1.00;;;;;;5047694;28;20435;-54
2023/04/04 06:46:25;;;;;;;6.40;3.07;;;5.10;1.00;;;;;;5051921;28;20982;-55
2023/04/04 06:48:51;;;;;;;5.70;3.03;;;5.00;1.00;;;;;;5046624;28;20450;-54
2023/04/04 06:51:17;;;;;;;6.90;3.50;;;4.90;1.00;;;;;;5046763;28;20446;-55
2023/04/04 06:53:42;;;;;;;5.03;2.50;;;4.80;1.00;;;;;;5049548;28;20244;-54
2023/04/04 06:56:08;;;;;;;6.70;3.37;;;4.90;1.00;;;;;;5048314;28;20185;-53
2023/04/04 06:58:34;;;;;;;8.00;4.10;;;5.00;1.00;;;;;;5045551;28;20223;-53
2023/04/04 07:01:01;;;;;;;6.43;3.70;;;5.00;1.00;;;;;;5045494;28;20953;-53
2023/04/04 07:03:27;;;;;;;3.37;2.47;;;5.10;1.00;;;;;;5047615;28;20493;-54
2023/04/04 07:05:52;;;;;;;5.40;2.73;;;4.90;1.00;;;;;;5040949;28;20463;-53
2023/04/04 07:08:18;;;;;;;6.07;2.83;;;5.00;1.00;;;;;;5045897;28;20196;-52
2023/04/04 07:10:44;;;;;;;6.77;3.37;;;5.20;1.00;;;;;;5046465;28;20245;-51
2023/04/04 07:13:10;;;;;;;4.30;2.43;;;5.30;99.90;;;;;;5042972;28;20450;-54
2023/04/04 07:15:35;;;;;;;3.03;2.33;;;5.40;99.90;;;;;;5042942;28;20234;-52
2023/04/04 07:18:01;;;;;;;4.03;2.37;;;5.70;99.90;;;;;;5037633;28;20213;-52
2023/04/04 07:20:27;;;;;;;3.63;2.30;;;5.70;99.90;;;;;;5047742;28;20187;-54
2023/04/04 07:22:53;;;;;;;4.30;2.73;;;5.90;99.90;;;;;;5043854;28;20769;-53
2023/04/04 07:25:19;;;;;;;4.03;2.90;;;5.80;99.90;;;;;;5041755;28;20196;-54
2023/04/04 07:27:45;;;;;;;6.90;3.13;;;5.90;99.90;;;;;;5046549;28;20739;-53
2023/04/04 07:30:11;;;;;;;3.97;3.53;;;6.00;99.90;;;;;;5048626;28;20477;-52
2023/04/04 07:32:37;;;;;;;6.67;2.83;;;6.10;99.90;;;;;;5042973;28;20192;-52
2023/04/04 07:35:06;;;;;;;3.90;2.70;;;6.20;99.90;;;;;;5044410;28;20484;-53
2023/04/04 07:37:35;;;;;;;4.90;2.93;;;6.40;99.90;;;;;;5045681;28;20207;-53
2023/04/04 07:40:01;;;;;;;5.17;2.57;;;6.50;99.90;;;;;;5047620;28;20932;-53
2023/04/04 07:42:26;;;;;;;3.67;2.67;;;6.40;99.90;;;;;;5048723;28;20445;-55
2023/04/04 07:44:52;;;;;;;4.47;2.80;;;6.20;99.90;;;;;;5043909;28;20733;-55
2023/04/04 07:47:18;;;;;;;3.33;2.23;;;6.20;99.90;;;;;;5046150;28;20196;-54
2023/04/04 07:49:43;;;;;;;3.67;2.37;;;6.00;99.90;;;;;;5050533;28;20216;-53
2023/04/04 07:52:09;;;;;;;3.57;2.53;;;6.00;99.90;;;;;;5044547;28;20203;-55
2023/04/04 07:54:35;;;;;;;4.10;2.47;;;5.90;99.90;;;;;;5042268;28;20242;-53
2023/04/04 07:57:04;;;;;;;3.77;2.60;;;5.90;99.90;;;;;;5047585;28;20231;-54
2023/04/04 07:59:33;;;;;;;3.33;1.87;;;6.10;99.90;;;;;;5047424;28;20450;-54
2023/04/04 08:01:59;;;;;;;5.23;4.13;;;6.30;99.90;;;;;;5050387;28;20462;-53
2023/04/04 08:04:25;;;;;;;1.60;1.40;;;6.40;99.90;;;;;;5047199;28;20792;-55
2023/04/04 08:06:50;;;;;;;2.00;1.70;;;6.20;99.90;;;;;;5049390;28;20200;-56
2023/04/04 08:09:16;;;;;;;4.10;2.37;;;6.20;99.90;;;;;;5044843;28;20184;-52
2023/04/04 08:11:41;;;;;;;3.43;2.33;;;6.00;99.90;;;;;;5050381;28;20184;-55
2023/04/04 08:14:10;;;;;;;5.07;1.97;;;6.10;99.90;;;;;;5042193;28;20201;-53
2023/04/04 08:16:37;;;;;;;6.97;1.50;;;6.50;99.90;;;;;;5041947;28;20212;-55
2023/04/04 08:19:03;;;;;;;4.00;1.93;;;6.50;99.90;;;;;;5048035;28;20454;-52
2023/04/04 08:21:29;;;;;;;1.63;1.30;;;6.40;99.90;;;;;;5055874;28;20474;-55
2023/04/04 08:23:54;;;;;;;4.03;2.87;;;6.60;99.90;;;;;;5050259;28;20585;-54
2023/04/04 08:26:20;;;;;;;3.07;1.57;;;7.00;99.90;;;;;;5051330;28;20447;-54
2023/04/04 08:28:46;;;;;;;2.33;1.70;;;7.10;99.90;;;;;;5049596;28;20184;-53
2023/04/04 08:31:12;;;;;;;1.73;1.37;;;7.40;99.90;;;;;;5049063;28;20470;-53
2023/04/04 08:33:38;;;;;;;2.30;1.50;;;7.80;99.90;;;;;;5045572;28;20486;-53
2023/04/04 08:36:04;;;;;;;1.40;1.27;;;7.90;99.90;;;;;;5046452;28;20184;-53
2023/04/04 08:38:30;;;;;;;1.60;1.33;;;7.60;99.90;;;;;;5046744;28;20471;-53
2023/04/04 08:40:55;;;;;;;2.70;1.80;;;7.50;99.90;;;;;;5057862;28;20446;-52
2023/04/04 08:43:23;;;;;;;2.73;1.80;;;7.30;99.90;;;;;;5051681;28;20238;-54
2023/04/04 08:45:52;;;;;;;3.50;1.77;;;7.30;99.90;;;;;;5057667;28;20185;-54
2023/04/04 08:48:19;;;;;;;2.73;1.67;;;7.50;99.90;;;;;;5057653;28;20533;-54
2023/04/04 08:50:45;;;;;;;2.23;1.50;;;7.80;99.90;;;;;;5050421;28;20459;-56
2023/04/04 08:53:12;;;;;;;2.83;1.60;;;7.70;99.90;;;;;;5050197;28;20445;-54
2023/04/04 08:55:38;;;;;;;3.13;1.30;;;7.60;99.90;;;;;;5048287;28;20490;-51
2023/04/04 08:58:04;;;;;;;6.90;1.40;;;7.60;99.90;;;;;;5054744;28;20482;-54
2023/04/04 09:00:31;;;;;;;2.33;1.67;;;7.60;99.90;;;;;;5047674;28;20271;-53
2023/04/04 09:03:12;;;;;;;1.80;1.20;;;7.30;99.90;;;;;;5060052;28;20439;-55
2023/04/04 09:05:38;;;;;;;2.40;1.63;;;7.10;99.90;;;;;;5048385;28;20450;-55
2023/04/04 09:08:06;;;;;;;1.00;0.90;;;7.20;99.90;;;;;;5050976;28;20796;-55
2023/04/04 09:10:32;;;;;;;2.30;1.20;;;7.50;99.90;;;;;;5047363;28;20510;-55
2023/04/04 09:12:58;;;;;;;5.23;2.80;;;7.50;99.90;;;;;;5043277;28;20888;-55
2023/04/04 09:15:24;;;;;;;7.00;2.80;;;7.70;99.90;;;;;;5044565;28;21238;-54
2023/04/04 09:17:49;;;;;;;2.13;1.60;;;8.00;99.90;;;;;;5043330;28;20467;-53
2023/04/04 09:20:37;;;;;;;4.17;1.63;;;8.20;99.90;;;;;;5049716;28;20185;-54
2023/04/04 09:23:06;;;;;;;2.83;1.40;;;8.60;99.90;;;;;;5051016;28;20196;-54
2023/04/04 09:25:33;;;;;;;3.20;1.23;;;9.00;99.90;;;;;;5050462;28;20462;-54
2023/04/04 09:28:01;;;;;;;2.17;1.13;;;9.10;99.90;;;;;;5049199;28;20537;-54
2023/04/04 09:30:27;;;;;;;2.27;1.27;;;9.00;99.90;;;;;;5053434;28;20438;-54
2023/04/04 09:32:53;;;;;;;7.00;1.87;;;9.30;99.90;;;;;;5070283;28;20430;-53
2023/04/04 09:35:19;;;;;;;2.90;1.90;;;9.00;99.90;;;;;;5070739;28;20440;-54
2023/04/04 09:37:45;;;;;;;2.97;1.40;;;8.70;99.90;;;;;;5070769;28;20238;-54
2023/04/04 09:40:12;;;;;;;1.37;1.03;;;8.70;99.90;;;;;;5070773;28;20434;-55
2023/04/04 09:42:38;;;;;;;1.93;1.30;;;8.70;99.90;;;;;;5050076;28;20177;-54
2023/04/04 09:45:04;;;;;;;2.07;1.00;;;8.70;99.90;;;;;;5050729;28;20526;-54
2023/04/04 09:47:32;;;;;;;2.67;1.20;;;9.00;99.90;;;;;;5050627;28;20195;-54
2023/04/04 09:50:00;;;;;;;1.90;1.50;;;9.30;99.90;;;;;;5050839;28;20883;-54
2023/04/04 09:52:26;;;;;;;1.77;1.20;;;8.60;99.90;;;;;;5050311;28;20463;-53
2023/04/04 09:55:03;;;;;;;1.47;1.10;;;7.80;99.90;;;;;;5050150;28;21010;-55
2023/04/04 09:57:34;;;;;;;1.57;1.47;;;7.80;99.90;;;;;;5046473;28;20473;-54
2023/04/04 10:00:03;;;;;;;2.47;1.30;;;7.70;99.90;;;;;;5049729;28;20855;-53
2023/04/04 10:02:32;;;;;;;4.77;1.70;;;8.10;99.90;;;;;;5049999;28;21095;-54
2023/04/04 10:04:58;;;;;;;2.63;1.37;;;8.80;99.90;;;;;;5049997;28;20431;-54
2023/04/04 10:07:26;;;;;;;1.30;1.20;;;9.30;99.90;;;;;;5050407;28;20470;-56
2023/04/04 10:09:52;;;;;;;3.00;1.70;;;9.40;99.90;;;;;;5050094;28;20487;-53
2023/04/04 10:12:24;;;;;;;2.93;0.93;;;9.20;99.90;;;;;;5048320;28;20453;-53
2023/04/04 10:15:00;;;;;;;2.30;1.07;;;9.60;99.90;;;;;;5049635;28;20430;-53
2023/04/04 10:17:46;;;;;;;1.77;1.10;;;9.50;99.90;;;;;;5069954;28;20555;-54
2023/04/04 10:20:13;;;;;;;2.53;0.80;;;8.90;99.90;;;;;;5059286;28;20439;-54
2023/04/04 10:22:39;;;;;;;2.53;0.87;;;8.50;99.90;;;;;;5049708;28;20443;-54
2023/04/04 10:25:06;;;;;;;1.73;1.17;;;8.50;99.90;;;;;;5049325;28;20538;-54
2023/04/04 10:27:32;;;;;;;4.67;0.80;;;8.60;99.90;;;;;;5044692;28;20455;-54
2023/04/04 10:29:59;;;;;;;1.37;1.07;;;8.90;99.90;;;;;;5049772;28;20439;-54
2023/04/04 10:32:37;;;;;;;1.80;1.43;;;9.30;99.90;;;;;;5049946;28;20823;-54
2023/04/04 10:35:09;;;;;;;1.63;0.73;;;9.40;99.90;;;;;;5049703;28;20473;-55
2023/04/04 10:37:41;;;;;;;1.57;0.90;;;9.40;99.90;;;;;;5049670;28;20982;-54
2023/04/04 10:40:11;;;;;;;1.27;1.00;;;9.10;99.90;;;;;;5049449;28;20435;-55
2023/04/04 10:42:43;;;;;;;1.50;1.00;;;9.20;99.90;;;;;;5048331;28;20462;-55
2023/04/04 10:45:10;;;;;;;1.67;0.90;;;9.50;99.90;;;;;;5049531;28;20967;-54
2023/04/04 10:47:36;;;;;;;4.63;1.43;;;9.90;99.90;;;;;;5049777;28;20470;-54
2023/04/04 10:50:06;;;;;;;3.03;1.23;;;9.30;99.90;;;;;;5044404;28;20508;-55
2023/04/04 10:52:32;;;;;;;1.97;1.30;;;9.40;99.90;;;;;;5048931;28;20456;-54
2023/04/04 10:55:03;;;;;;;1.10;1.00;;;9.70;99.90;;;;;;5049204;28;20463;-53
2023/04/04 10:57:29;;;;;;;3.97;1.33;;;10.00;99.90;;;;;;5049022;28;20470;-54
2023/04/04 11:00:00;;;;;;;1.93;1.07;;;9.80;99.90;;;;;;5049664;28;20533;-55
2023/04/04 11:02:50;;;;;;;3.60;1.23;;;10.00;99.90;;;;;;5052488;28;20516;-55
2023/04/04 11:05:23;;;;;;;1.87;1.30;;;10.20;99.90;;;;;;5046499;28;20496;-53
2023/04/04 11:08:09;;;;;;;2.10;1.30;;;10.40;99.90;;;;;;5049264;28;20446;-53
2023/04/04 11:10:41;;;;;;;1.97;1.50;;;10.50;99.90;;;;;;5044161;28;20817;-53
2023/04/04 11:13:24;;;;;;;2.00;1.07;;;10.40;99.90;;;;;;5049180;28;20431;-53
2023/04/04 11:16:25;;;;;;;3.77;1.40;;;9.90;99.90;;;;;;5048606;28;20427;-54
2023/04/04 11:18:51;;;;;;;1.60;1.07;;;9.40;99.90;;;;;;5036242;28;20447;-54
2023/04/04 11:21:19;;;;;;;2.70;1.17;;;9.60;99.90;;;;;;5065793;28;20946;-53
2023/04/04 11:23:47;;;;;;;1.43;1.00;;;9.80;99.90;;;;;;5067269;28;20437;-54
2023/04/04 11:26:26;;;;;;;3.80;1.53;;;9.10;99.90;;;;;;5046979;28;20438;-54
2023/04/04 11:28:58;;;;;;;1.60;1.30;;;8.90;99.90;;;;;;5049050;28;20431;-54
2023/04/04 11:31:26;;;;;;;2.33;1.50;;;9.40;99.90;;;;;;5048747;28;20435;-54
2023/04/04 11:34:05;;;;;;;2.33;1.20;;;9.50;99.90;;;;;;5049083;28;20475;-54
2023/04/04 11:36:34;;;;;;;5.00;1.10;;;9.70;99.90;;;;;;5048940;28;20485;-54
2023/04/04 11:39:03;;;;;;;3.10;1.70;;;9.70;99.90;;;;;;5046982;28;20482;-54
2023/04/04 11:41:47;;;;;;;1.80;1.20;;;9.30;99.90;;;;;;5045933;28;20450;-54
2023/04/04 11:44:15;;;;;;;0.93;0.93;;;8.90;99.90;;;;;;5046751;28;20434;-58
2023/04/04 11:46:41;;;;;;;2.13;1.20;;;8.80;99.90;;;;;;5048795;28;20435;-52
2023/04/04 11:49:06;;;;;;;2.20;1.10;;;8.90;99.90;;;;;;5048247;28;20450;-54
2023/04/04 11:51:32;;;;;;;1.37;1.27;;;9.30;99.90;;;;;;5049016;28;20454;-54
2023/04/04 11:53:58;;;;;;;0.80;0.80;;;9.70;99.90;;;;;;5068205;28;20314;-54
2023/04/04 11:56:24;;;;;;;1.60;1.13;;;9.30;99.90;;;;;;5068659;28;20176;-53
2023/04/04 11:58:50;;;;;;;2.80;1.10;;;9.10;99.90;;;;;;5064731;28;20448;-55
2023/04/04 12:01:18;;;;;;;2.90;1.40;;;8.80;99.90;;;;;;5048438;28;20463;-54
2023/04/04 12:03:43;;;;;;;1.60;1.30;;;9.10;99.90;;;;;;5048512;28;20517;-53
2023/04/04 12:06:10;;;;;;;1.67;1.27;;;9.40;99.90;;;;;;5047887;28;20439;-55
2023/04/04 12:08:36;;;;;;;1.60;1.13;;;9.60;99.90;;;;;;5039766;28;20192;-55
2023/04/04 12:11:10;;;;;;;1.13;0.90;;;9.30;99.90;;;;;;5039265;28;20504;-55
2023/04/04 12:13:43;;;;;;;2.30;1.70;;;9.20;99.90;;;;;;5043697;28;20188;-54
2023/04/04 12:16:09;;;;;;;2.00;0.90;;;9.10;99.90;;;;;;5042681;28;20451;-55
2023/04/04 12:18:36;;;;;;;1.77;1.10;;;9.10;99.90;;;;;;5045549;28;20481;-54
2023/04/04 12:21:02;;;;;;;1.60;1.50;;;9.20;99.90;;;;;;5045755;28;20450;-53
2023/04/04 12:23:35;;;;;;;2.20;1.10;;;9.20;99.90;;;;;;5049252;28;20442;-53
2023/04/04 12:26:04;;;;;;;1.47;0.80;;;9.10;99.90;;;;;;5040497;28;20865;-55
2023/04/04 12:28:33;;;;;;;2.30;1.10;;;9.10;99.90;;;;;;5042734;28;20461;-54
2023/04/04 12:31:04;;;;;;;1.53;1.33;;;9.30;99.90;;;;;;5053130;28;20789;-53
2023/04/04 12:33:32;;;;;;;1.90;1.07;;;8.90;99.90;;;;;;5041007;28;20442;-54
2023/04/04 12:35:58;;;;;;;2.73;1.60;;;9.10;99.90;;;;;;5048491;28;20455;-54
2023/04/04 12:38:25;;;;;;;2.30;1.50;;;9.60;99.90;;;;;;5048364;28;20553;-53
2023/04/04 12:40:51;;;;;;;2.30;1.67;;;10.20;99.90;;;;;;5043858;28;20543;-55
2023/04/04 12:43:19;;;;;;;5.37;1.87;;;10.50;99.90;;;;;;5047212;28;20439;-55
2023/04/04 12:45:45;;;;;;;1.47;1.20;;;9.80;99.90;;;;;;5055039;28;20474;-55
2023/04/04 12:48:16;;;;;;;2.30;1.30;;;9.30;99.90;;;;;;5050368;28;20447;-54
2023/04/04 12:50:57;;;;;;;1.80;1.30;;;9.00;99.90;;;;;;5049385;28;20446;-55
2023/04/04 12:53:27;;;;;;;2.87;1.43;;;9.30;99.90;;;;;;5044650;28;21040;-55
2023/04/04 12:55:55;;;;;;;3.30;1.53;;;9.80;99.90;;;;;;5051785;28;20444;-55
2023/04/04 12:58:24;;;;;;;3.90;1.33;;;10.10;99.90;;;;;;5051435;28;21136;-55
2023/04/04 13:00:52;;;;;;;1.73;1.27;;;10.20;99.90;;;;;;5048068;28;20756;-55
2023/04/04 13:03:21;;;;;;;1.70;1.60;;;9.70;99.90;;;;;;5048557;28;20496;-55